createdAt,value
2023-04-30T00:00:08.450Z,61.51
2023-04-30T00:02:38.810Z,61.54
2023-04-30T00:05:06.355Z,61.64
2023-04-30T00:07:33.919Z,61.72
2023-04-30T00:10:00.969Z,61.89
2023-04-30T00:12:31.153Z,61.87
2023-04-30T00:14:58.171Z,61.73
2023-04-30T00:17:25.302Z,61.99
2023-04-30T00:19:52.782Z,61.91
2023-04-30T00:22:20.074Z,62.09
2023-04-30T00:24:47.129Z,62.15
2023-04-30T00:27:14.395Z,62.51
2023-04-30T00:29:41.462Z,62.36
2023-04-30T00:32:08.706Z,62.53
2023-04-30T00:34:35.796Z,62.72
2023-04-30T00:37:03.991Z,62.90
2023-04-30T00:39:31.153Z,63.28
2023-04-30T00:41:58.213Z,63.18
2023-04-30T00:44:25.236Z,63.44
2023-04-30T00:46:52.340Z,63.08
2023-04-30T00:49:19.542Z,63.30
2023-04-30T00:51:46.801Z,63.48
2023-04-30T00:54:14.660Z,63.76
2023-04-30T00:56:41.881Z,63.77
2023-04-30T00:59:09.393Z,63.65
2023-04-30T01:01:37.688Z,63.66
2023-04-30T01:04:10.880Z,63.94
2023-04-30T01:06:43.739Z,63.59
2023-04-30T01:09:10.921Z,63.86
2023-04-30T01:11:56.238Z,64.10
2023-04-30T01:14:58.856Z,63.63
2023-04-30T01:17:52.824Z,64.46
2023-04-30T01:20:20.255Z,63.85
2023-04-30T01:22:52.257Z,64.11
2023-04-30T01:25:40.759Z,63.89
2023-04-30T01:28:10.031Z,64.09
2023-04-30T01:30:40.920Z,64.07
2023-04-30T01:33:08.497Z,63.88
2023-04-30T01:35:53.772Z,64.29
2023-04-30T01:38:29.941Z,63.94
2023-04-30T01:41:08.549Z,64.05
2023-04-30T01:43:38.470Z,64.29
2023-04-30T01:46:11.882Z,64.41
2023-04-30T01:48:54.782Z,64.27
2023-04-30T01:51:28.896Z,64.26
2023-04-30T01:54:00.778Z,64.25
2023-04-30T01:56:41.486Z,64.30
2023-04-30T01:59:09.767Z,64.35
2023-04-30T02:01:37.695Z,64.30
2023-04-30T02:04:05.052Z,64.57
2023-04-30T02:06:33.113Z,64.50
2023-04-30T02:09:05.486Z,64.58
2023-04-30T02:11:32.925Z,64.56
2023-04-30T02:14:00.150Z,64.59
2023-04-30T02:16:27.481Z,64.48
2023-04-30T02:18:54.550Z,64.99
2023-04-30T02:21:21.640Z,64.73
2023-04-30T02:23:48.947Z,65.19
2023-04-30T02:26:16.146Z,65.26
2023-04-30T02:28:43.264Z,65.47
2023-04-30T02:31:11.115Z,65.03
2023-04-30T02:33:38.190Z,65.06
2023-04-30T02:36:05.637Z,65.58
2023-04-30T02:38:32.628Z,65.24
2023-04-30T02:40:59.653Z,65.42
2023-04-30T02:43:26.716Z,65.26
2023-04-30T02:45:53.784Z,65.46
2023-04-30T02:48:20.910Z,65.11
2023-04-30T02:50:47.924Z,66.01
2023-04-30T02:53:15.085Z,66.12
2023-04-30T02:55:42.095Z,66.19
2023-04-30T02:58:09.574Z,66.09
2023-04-30T03:00:36.604Z,66.06
2023-04-30T03:03:04.009Z,65.81
2023-04-30T03:05:31.179Z,66.25
2023-04-30T03:07:58.163Z,65.99
2023-04-30T03:10:25.574Z,66.01
2023-04-30T03:12:53.998Z,65.75
2023-04-30T03:15:21.094Z,65.66
2023-04-30T03:17:48.173Z,66.09
2023-04-30T03:20:15.261Z,65.44
2023-04-30T03:22:42.302Z,65.57
2023-04-30T03:25:10.799Z,65.49
2023-04-30T03:27:37.975Z,65.29
2023-04-30T03:30:05.914Z,64.85
2023-04-30T03:32:33.103Z,64.77
2023-04-30T03:35:00.386Z,64.93
2023-04-30T03:37:27.405Z,64.76
2023-04-30T03:39:54.618Z,64.99
2023-04-30T03:42:21.789Z,64.16
2023-04-30T03:44:48.844Z,64.06
2023-04-30T03:47:15.963Z,63.73
2023-04-30T03:49:43.776Z,63.68
2023-04-30T03:52:11.346Z,63.28
2023-04-30T03:54:38.606Z,63.02
2023-04-30T03:57:07.948Z,62.92
2023-04-30T03:59:35.271Z,62.65
2023-04-30T04:02:02.384Z,62.67
2023-04-30T04:04:30.396Z,62.21
2023-04-30T04:06:58.641Z,61.57
2023-04-30T04:09:25.672Z,61.43
2023-04-30T04:11:52.656Z,60.67
2023-04-30T04:14:19.625Z,60.42
2023-04-30T04:16:47.376Z,59.64
2023-04-30T04:19:14.560Z,59.38
2023-04-30T04:21:41.693Z,58.54
2023-04-30T04:24:14.507Z,58.39
2023-04-30T04:26:41.729Z,58.28
2023-04-30T04:29:10.667Z,57.36
2023-04-30T04:31:38.893Z,56.22
2023-04-30T04:34:05.993Z,56.14
2023-04-30T04:36:34.316Z,55.78
2023-04-30T04:39:02.399Z,55.39
2023-04-30T04:41:30.382Z,55.30
2023-04-30T04:43:57.796Z,54.93
2023-04-30T04:46:26.193Z,54.72
2023-04-30T04:48:53.414Z,54.58
2023-04-30T04:51:20.774Z,54.98
2023-04-30T04:53:48.525Z,54.35
2023-04-30T04:56:15.934Z,54.25
2023-04-30T04:58:44.639Z,53.91
2023-04-30T05:01:12.059Z,54.11
2023-04-30T05:03:39.240Z,53.31
2023-04-30T05:06:06.472Z,53.47
2023-04-30T05:08:33.576Z,53.48
2023-04-30T05:11:01.018Z,53.26
2023-04-30T05:13:28.103Z,53.26
2023-04-30T05:15:55.616Z,53.47
2023-04-30T05:18:22.691Z,53.73
2023-04-30T05:20:49.922Z,53.39
2023-04-30T05:23:17.079Z,52.88
2023-04-30T05:25:44.278Z,53.04
2023-04-30T05:28:11.796Z,52.74
2023-04-30T05:30:38.864Z,52.58
2023-04-30T05:33:05.902Z,51.70
2023-04-30T05:35:36.179Z,51.47
2023-04-30T05:38:04.011Z,51.76
2023-04-30T05:40:31.224Z,51.94
2023-04-30T05:42:58.369Z,51.53
2023-04-30T05:45:25.484Z,51.14
2023-04-30T05:47:52.679Z,50.36
2023-04-30T05:50:20.152Z,49.81
2023-04-30T05:52:47.161Z,49.86
2023-04-30T05:55:14.179Z,50.00
2023-04-30T05:57:41.144Z,49.76
2023-04-30T06:00:08.973Z,50.10
2023-04-30T06:02:41.899Z,49.92
2023-04-30T06:05:09.329Z,49.39
2023-04-30T06:07:36.918Z,49.51
2023-04-30T06:10:04.372Z,49.62
2023-04-30T06:12:33.947Z,49.62
2023-04-30T06:15:01.138Z,48.47
2023-04-30T06:17:28.369Z,47.97
2023-04-30T06:19:55.770Z,46.56
2023-04-30T06:22:23.077Z,46.32
2023-04-30T06:24:50.077Z,45.16
2023-04-30T06:27:17.103Z,45.41
2023-04-30T06:29:44.117Z,45.09
2023-04-30T06:32:11.153Z,43.99
2023-04-30T06:34:38.692Z,44.02
2023-04-30T06:37:06.050Z,44.39
2023-04-30T06:39:33.091Z,44.67
2023-04-30T06:42:00.116Z,44.67
2023-04-30T06:44:28.751Z,43.60
2023-04-30T06:46:55.905Z,43.36
2023-04-30T06:49:22.982Z,42.88
2023-04-30T06:51:50.184Z,42.92
2023-04-30T06:54:17.265Z,43.11
2023-04-30T06:56:45.245Z,43.07
2023-04-30T06:59:12.423Z,42.58
2023-04-30T07:01:39.552Z,41.59
2023-04-30T07:04:07.242Z,41.08
2023-04-30T07:06:34.391Z,41.02
2023-04-30T07:09:02.153Z,40.59
2023-04-30T07:11:29.331Z,39.54
2023-04-30T07:13:56.980Z,39.92
2023-04-30T07:16:26.096Z,39.31
2023-04-30T07:18:53.192Z,39.35
2023-04-30T07:21:20.239Z,39.40
2023-04-30T07:23:48.794Z,39.55
2023-04-30T07:26:16.062Z,39.77
2023-04-30T07:28:43.083Z,38.75
2023-04-30T07:31:10.130Z,38.52
2023-04-30T07:33:37.207Z,37.80
2023-04-30T07:36:04.447Z,37.22
2023-04-30T07:38:31.542Z,37.75
2023-04-30T07:40:58.550Z,37.69
2023-04-30T07:43:25.873Z,36.80
2023-04-30T07:45:54.422Z,36.47
2023-04-30T07:48:22.243Z,36.72
2023-04-30T07:50:50.751Z,36.11
2023-04-30T07:53:20.032Z,36.46
2023-04-30T07:55:47.653Z,37.26
2023-04-30T07:58:14.735Z,37.04
2023-04-30T08:00:41.773Z,35.62
2023-04-30T08:03:09.138Z,36.67
2023-04-30T08:05:36.413Z,36.58
2023-04-30T08:08:04.153Z,36.70
2023-04-30T08:10:32.131Z,36.74
2023-04-30T08:12:59.496Z,37.05
2023-04-30T08:17:54.162Z,37.35
2023-04-30T08:20:23.704Z,37.52
2023-04-30T08:22:51.391Z,37.76
2023-04-30T08:25:18.389Z,37.45
2023-04-30T08:27:46.772Z,37.55
2023-04-30T08:30:13.926Z,37.71
2023-04-30T08:32:41.606Z,37.47
2023-04-30T08:35:09.646Z,37.48
2023-04-30T08:37:36.817Z,37.70
2023-04-30T08:40:04.849Z,37.85
2023-04-30T08:42:36.787Z,38.04
2023-04-30T08:45:05.109Z,38.06
2023-04-30T08:47:33.411Z,38.48
2023-04-30T08:50:01.015Z,38.59
2023-04-30T08:52:30.162Z,38.95
2023-04-30T08:54:58.999Z,38.92
2023-04-30T08:57:26.512Z,39.04
2023-04-30T08:59:54.816Z,39.30
2023-04-30T09:02:22.137Z,39.43
2023-04-30T09:04:49.695Z,39.44
2023-04-30T09:07:18.511Z,39.66
2023-04-30T09:09:45.534Z,39.74
2023-04-30T09:12:15.234Z,39.36
2023-04-30T09:15:04.760Z,38.60
2023-04-30T09:17:34.487Z,39.09
2023-04-30T09:20:12.491Z,38.22
2023-04-30T09:22:41.486Z,39.45
2023-04-30T09:25:09.972Z,39.64
2023-04-30T09:27:37.246Z,39.53
2023-04-30T09:30:04.892Z,39.42
2023-04-30T09:32:32.827Z,39.17
2023-04-30T09:35:00.044Z,39.62
2023-04-30T09:37:38.341Z,38.99
2023-04-30T09:40:06.176Z,39.70
2023-04-30T09:42:33.372Z,39.48
2023-04-30T09:45:00.523Z,38.99
2023-04-30T09:47:30.846Z,38.83
2023-04-30T09:50:00.288Z,38.74
2023-04-30T09:52:27.482Z,38.53
2023-04-30T09:54:54.560Z,38.64
2023-04-30T09:57:23.954Z,38.63
2023-04-30T09:59:53.487Z,38.87
2023-04-30T10:02:23.619Z,38.73
2023-04-30T10:04:56.654Z,38.03
2023-04-30T10:07:29.728Z,38.47
2023-04-30T10:10:07.159Z,38.27
2023-04-30T10:12:56.504Z,37.37
2023-04-30T10:15:28.642Z,38.40
2023-04-30T10:18:07.230Z,38.20
2023-04-30T10:20:39.336Z,38.05
2023-04-30T10:23:07.396Z,37.86
2023-04-30T10:25:34.635Z,37.55
2023-04-30T10:28:03.953Z,37.53
2023-04-30T10:30:32.973Z,37.90
2023-04-30T10:33:10.829Z,37.72
2023-04-30T10:35:58.122Z,37.48
2023-04-30T10:38:28.246Z,37.54
2023-04-30T10:41:00.845Z,37.63
2023-04-30T10:43:30.628Z,37.94
2023-04-30T10:45:58.921Z,37.81
2023-04-30T10:48:27.419Z,37.48
2023-04-30T10:50:59.170Z,37.60
2023-04-30T10:53:28.711Z,37.84
2023-04-30T10:56:00.832Z,38.10
2023-04-30T10:58:31.257Z,37.65
2023-04-30T11:01:15.885Z,37.48
2023-04-30T11:04:03.687Z,37.77
2023-04-30T11:07:09.881Z,38.67
2023-04-30T11:09:42.890Z,38.13
2023-04-30T11:12:28.602Z,37.73
2023-04-30T11:15:06.749Z,38.24
2023-04-30T11:17:34.032Z,38.31
2023-04-30T11:20:03.580Z,38.68
2023-04-30T11:22:36.477Z,38.62
2023-04-30T11:25:11.105Z,38.88
2023-04-30T11:27:41.130Z,38.92
2023-04-30T11:30:16.366Z,38.75
2023-04-30T11:32:50.331Z,38.59
2023-04-30T11:35:19.908Z,38.59
2023-04-30T11:37:48.487Z,38.21
2023-04-30T11:40:16.137Z,38.38
2023-04-30T11:42:46.180Z,37.99
2023-04-30T11:45:18.149Z,38.06
2023-04-30T11:47:46.457Z,38.40
2023-04-30T11:50:19.602Z,38.21
2023-04-30T11:52:51.260Z,37.95
2023-04-30T11:55:21.565Z,38.18
2023-04-30T11:57:50.445Z,38.20
2023-04-30T12:00:22.551Z,38.88
2023-04-30T12:02:50.471Z,38.46
2023-04-30T12:05:23.249Z,38.59
2023-04-30T12:07:52.501Z,38.40
2023-04-30T12:10:20.198Z,38.66
2023-04-30T12:12:51.937Z,38.96
2023-04-30T12:15:28.131Z,38.67
2023-04-30T12:17:57.766Z,38.57
2023-04-30T12:20:28.277Z,38.51
2023-04-30T12:22:56.222Z,38.17
2023-04-30T12:25:23.910Z,38.31
2023-04-30T12:27:53.362Z,38.52
2023-04-30T12:30:27.031Z,38.26
2023-04-30T12:32:57.889Z,38.38
2023-04-30T12:35:28.069Z,38.46
2023-04-30T12:38:04.660Z,38.37
2023-04-30T12:40:32.025Z,38.66
2023-04-30T12:43:03.209Z,39.18
2023-04-30T12:45:45.519Z,39.07
2023-04-30T12:48:13.929Z,38.71
2023-04-30T12:50:41.270Z,38.67
2023-04-30T12:53:08.785Z,38.86
2023-04-30T12:55:37.904Z,38.88
2023-04-30T12:58:10.592Z,38.93
2023-04-30T13:00:51.750Z,38.66
2023-04-30T13:03:21.103Z,38.51
2023-04-30T13:05:52.674Z,38.60
2023-04-30T13:08:23.785Z,38.67
2023-04-30T13:10:51.962Z,39.43
2023-04-30T13:13:21.360Z,39.11
2023-04-30T13:15:48.702Z,39.15
2023-04-30T13:18:16.592Z,38.76
2023-04-30T13:20:44.023Z,39.23
2023-04-30T13:23:14.104Z,39.40
2023-04-30T13:25:44.663Z,39.22
2023-04-30T13:28:11.736Z,39.37
2023-04-30T13:30:39.281Z,39.39
2023-04-30T13:33:06.512Z,39.46
2023-04-30T13:35:33.604Z,39.53
2023-04-30T13:38:00.793Z,39.54
2023-04-30T13:40:27.964Z,39.78
2023-04-30T13:42:55.044Z,39.79
2023-04-30T13:45:22.242Z,39.77
2023-04-30T13:47:49.294Z,39.91
2023-04-30T13:50:16.364Z,39.82
2023-04-30T13:52:43.489Z,40.18
2023-04-30T13:55:10.541Z,41.03
2023-04-30T13:57:37.909Z,40.61
2023-04-30T14:00:06.358Z,40.82
2023-04-30T14:02:35.621Z,41.07
2023-04-30T14:05:06.744Z,40.92
2023-04-30T14:07:34.375Z,41.20
2023-04-30T14:10:01.389Z,40.81
2023-04-30T14:12:30.864Z,41.17
2023-04-30T14:14:58.066Z,41.25
2023-04-30T14:17:27.088Z,41.16
2023-04-30T14:19:55.052Z,41.44
2023-04-30T14:22:22.316Z,41.34
2023-04-30T14:24:49.300Z,41.62
2023-04-30T14:27:16.319Z,41.60
2023-04-30T14:29:43.296Z,41.94
2023-04-30T14:32:10.587Z,41.80
2023-04-30T14:34:37.709Z,42.11
2023-04-30T14:37:05.411Z,42.08
2023-04-30T14:39:32.633Z,42.32
2023-04-30T14:41:59.829Z,42.62
2023-04-30T14:44:27.049Z,42.24
2023-04-30T14:46:54.098Z,42.66
2023-04-30T14:49:21.152Z,42.68
2023-04-30T14:51:48.472Z,43.01
2023-04-30T14:54:15.515Z,43.14
2023-04-30T14:56:42.738Z,43.19
2023-04-30T14:59:09.826Z,43.23
2023-04-30T15:01:36.914Z,43.34
2023-04-30T15:04:04.158Z,43.31
2023-04-30T15:06:31.680Z,43.35
2023-04-30T15:08:58.751Z,43.55
2023-04-30T15:11:25.980Z,43.79
2023-04-30T15:13:55.369Z,43.91
2023-04-30T15:16:22.621Z,43.86
2023-04-30T15:18:49.778Z,44.05
2023-04-30T15:21:16.805Z,44.42
2023-04-30T15:23:44.356Z,44.35
2023-04-30T15:26:11.468Z,44.72
2023-04-30T15:28:38.622Z,45.14
2023-04-30T15:31:06.554Z,44.92
2023-04-30T15:33:39.593Z,45.21
2023-04-30T15:36:06.857Z,45.61
2023-04-30T15:38:34.703Z,45.77
2023-04-30T15:41:01.843Z,45.92
2023-04-30T15:43:30.047Z,46.42
2023-04-30T15:45:57.281Z,46.71
2023-04-30T15:48:24.398Z,47.28
2023-04-30T15:50:51.426Z,47.79
2023-04-30T15:53:18.478Z,48.20
2023-04-30T15:55:46.814Z,48.80
2023-04-30T15:58:13.905Z,49.11
2023-04-30T16:00:41.577Z,49.46
2023-04-30T16:03:08.875Z,49.94
2023-04-30T16:05:38.887Z,50.79
2023-04-30T16:08:09.139Z,51.69
2023-04-30T16:10:37.044Z,52.43
2023-04-30T16:13:04.375Z,52.60
2023-04-30T16:15:32.128Z,52.54
2023-04-30T16:17:59.262Z,53.02
2023-04-30T16:20:27.453Z,53.34
2023-04-30T16:22:55.690Z,53.33
2023-04-30T16:25:22.813Z,53.42
2023-04-30T16:27:50.493Z,53.88
2023-04-30T16:30:17.890Z,54.91
2023-04-30T16:32:44.979Z,55.06
2023-04-30T16:35:12.105Z,55.80
2023-04-30T16:37:39.183Z,55.86
2023-04-30T16:40:07.740Z,55.83
2023-04-30T16:42:35.200Z,56.20
2023-04-30T16:45:02.493Z,56.11
2023-04-30T16:47:33.469Z,56.97
2023-04-30T16:50:00.754Z,57.62
2023-04-30T16:52:28.576Z,57.84
2023-04-30T16:54:55.682Z,58.71
2023-04-30T16:57:25.244Z,59.99
2023-04-30T16:59:52.937Z,60.68
2023-04-30T17:02:20.279Z,61.11
2023-04-30T17:04:47.320Z,62.09
2023-04-30T17:07:14.679Z,62.67
2023-04-30T17:09:42.280Z,61.80
2023-04-30T17:12:09.267Z,62.41
2023-04-30T17:14:36.304Z,62.96
2023-04-30T17:17:03.533Z,62.14
2023-04-30T17:19:30.527Z,62.35
2023-04-30T17:21:57.596Z,62.08
2023-04-30T17:24:25.084Z,62.00
2023-04-30T17:26:52.535Z,62.06
2023-04-30T17:29:23.716Z,61.92
2023-04-30T17:31:50.912Z,62.08
2023-04-30T17:34:18.068Z,62.31
2023-04-30T17:36:45.386Z,62.71
2023-04-30T17:39:12.791Z,63.78
2023-04-30T17:41:39.981Z,64.11
2023-04-30T17:44:07.118Z,65.95
2023-04-30T17:46:34.573Z,65.10
2023-04-30T17:49:03.639Z,65.24
2023-04-30T17:51:31.757Z,65.30
2023-04-30T17:54:01.782Z,65.27
2023-04-30T17:56:32.404Z,65.20
2023-04-30T17:59:00.195Z,65.43
2023-04-30T18:01:27.768Z,65.96
2023-04-30T18:03:55.500Z,66.53
2023-04-30T18:06:22.729Z,66.21
2023-04-30T18:08:49.832Z,66.02
2023-04-30T18:11:16.879Z,67.12
2023-04-30T18:13:44.978Z,67.32
2023-04-30T18:16:14.204Z,67.35
2023-04-30T18:18:41.585Z,67.26
2023-04-30T18:21:08.971Z,67.61
2023-04-30T18:23:36.867Z,67.56
2023-04-30T18:26:04.174Z,67.50
2023-04-30T18:28:31.559Z,67.91
2023-04-30T18:30:58.738Z,68.04
2023-04-30T18:33:26.218Z,68.14
2023-04-30T18:35:54.799Z,68.12
2023-04-30T18:38:22.056Z,68.96
2023-04-30T18:40:54.705Z,69.43
2023-04-30T18:43:25.244Z,69.28
2023-04-30T18:45:52.732Z,69.42
2023-04-30T18:48:22.963Z,69.45
2023-04-30T18:50:50.255Z,69.46
2023-04-30T18:53:18.255Z,69.69
2023-04-30T18:55:45.745Z,69.66
2023-04-30T18:58:13.032Z,69.64
2023-04-30T19:00:42.992Z,69.46
2023-04-30T19:03:10.726Z,69.69
2023-04-30T19:05:37.964Z,69.15
2023-04-30T19:08:05.074Z,69.35
2023-04-30T19:10:33.957Z,69.42
2023-04-30T19:13:01.749Z,69.61
2023-04-30T19:15:30.110Z,70.44
2023-04-30T19:17:57.716Z,70.31
2023-04-30T19:20:25.007Z,70.21
2023-04-30T19:22:52.200Z,70.18
2023-04-30T19:25:19.367Z,70.52
2023-04-30T19:27:47.686Z,70.28
2023-04-30T19:30:15.175Z,70.38
2023-04-30T19:32:42.354Z,69.97
2023-04-30T19:35:09.697Z,69.64
2023-04-30T19:37:37.606Z,69.68
2023-04-30T19:40:10.616Z,70.40
2023-04-30T19:42:39.342Z,70.33
2023-04-30T19:45:08.123Z,69.92
2023-04-30T19:47:36.330Z,70.46
2023-04-30T19:50:03.631Z,70.43
2023-04-30T19:52:32.208Z,70.72
2023-04-30T19:54:59.750Z,70.20
2023-04-30T19:57:28.205Z,70.28
2023-04-30T19:59:55.590Z,70.98
2023-04-30T20:02:22.792Z,71.25
2023-04-30T20:04:49.839Z,71.13
2023-04-30T20:07:18.841Z,71.18
2023-04-30T20:09:46.185Z,71.38
2023-04-30T20:12:13.509Z,71.31
2023-04-30T20:14:40.532Z,70.81
2023-04-30T20:17:07.735Z,70.76
2023-04-30T20:19:34.770Z,70.87
2023-04-30T20:22:02.999Z,70.81
2023-04-30T20:24:29.990Z,70.94
2023-04-30T20:26:56.993Z,70.95
2023-04-30T20:29:24.118Z,71.32
2023-04-30T20:31:52.040Z,70.95
2023-04-30T20:34:20.347Z,70.92
2023-04-30T20:36:47.393Z,71.04
2023-04-30T20:39:14.692Z,71.39
2023-04-30T20:41:42.240Z,71.51
2023-04-30T20:44:09.938Z,71.35
2023-04-30T20:46:38.378Z,71.41
2023-04-30T20:49:05.491Z,71.72
2023-04-30T20:51:32.859Z,71.79
2023-04-30T20:53:59.917Z,71.62
2023-04-30T20:56:27.200Z,71.15
2023-04-30T20:58:54.690Z,71.04
2023-04-30T21:01:22.163Z,70.68
2023-04-30T21:03:49.488Z,71.16
2023-04-30T21:06:17.635Z,70.98
2023-04-30T21:08:44.770Z,71.14
2023-04-30T21:11:14.266Z,71.19
2023-04-30T21:13:41.924Z,71.23
2023-04-30T21:16:09.619Z,71.16
2023-04-30T21:18:36.717Z,71.20
2023-04-30T21:21:05.100Z,71.35
2023-04-30T21:23:32.803Z,71.43
2023-04-30T21:26:00.051Z,71.86
2023-04-30T21:28:27.404Z,71.52
2023-04-30T21:30:54.841Z,71.70
2023-04-30T21:33:22.128Z,71.33
2023-04-30T21:35:49.174Z,71.61
2023-04-30T21:38:16.512Z,71.49
2023-04-30T21:40:43.656Z,71.36
2023-04-30T21:43:10.679Z,71.61
2023-04-30T21:45:37.676Z,71.36
2023-04-30T21:48:05.692Z,71.92
2023-04-30T21:50:33.823Z,71.65
2023-04-30T21:53:01.576Z,72.13
2023-04-30T21:55:28.836Z,72.15
2023-04-30T21:57:55.912Z,72.32
2023-04-30T22:00:23.051Z,72.26
2023-04-30T22:02:51.050Z,72.50
2023-04-30T22:05:19.758Z,72.19
2023-04-30T22:07:47.609Z,72.06
2023-04-30T22:10:17.477Z,71.67
2023-04-30T22:12:47.463Z,71.89
2023-04-30T22:15:15.560Z,71.85
2023-04-30T22:17:42.954Z,72.21
2023-04-30T22:20:10.321Z,71.95
2023-04-30T22:22:37.646Z,71.79
2023-04-30T22:25:05.076Z,71.93
2023-04-30T22:27:32.603Z,71.91
2023-04-30T22:29:59.752Z,71.91
2023-04-30T22:32:27.756Z,71.86
2023-04-30T22:34:54.832Z,71.79
2023-04-30T22:37:21.906Z,71.92
2023-04-30T22:39:48.998Z,72.07
2023-04-30T22:42:16.940Z,71.70
2023-04-30T22:44:45.485Z,71.84
2023-04-30T22:47:13.081Z,71.66
2023-04-30T22:49:40.196Z,71.59
2023-04-30T22:52:07.402Z,71.61
2023-04-30T22:54:35.752Z,72.03
2023-04-30T22:57:03.171Z,71.81
2023-04-30T22:59:30.341Z,71.80
2023-04-30T23:01:57.440Z,71.87
2023-04-30T23:04:24.763Z,72.01
2023-04-30T23:06:52.693Z,72.22
2023-04-30T23:09:19.767Z,71.68
2023-04-30T23:11:47.765Z,71.95
2023-04-30T23:14:14.802Z,71.88
2023-04-30T23:16:42.904Z,71.97
2023-04-30T23:19:10.805Z,72.30
2023-04-30T23:21:37.928Z,72.29
2023-04-30T23:24:05.385Z,71.82
2023-04-30T23:26:32.512Z,72.18
2023-04-30T23:28:59.549Z,71.88
2023-04-30T23:31:27.412Z,72.30
2023-04-30T23:33:54.718Z,71.91
2023-04-30T23:36:22.092Z,72.13
2023-04-30T23:38:49.637Z,72.29
2023-04-30T23:41:16.835Z,72.51
2023-04-30T23:43:43.925Z,72.67
2023-04-30T23:46:11.019Z,72.79
2023-04-30T23:48:38.135Z,72.98
2023-04-30T23:51:05.908Z,72.82
2023-04-30T23:53:32.885Z,73.00
2023-04-30T23:56:00.213Z,72.68
2023-04-30T23:58:31.367Z,73.23
